Time;durP1;ratioP1;P1;durP2;ratioP2;P2;SDS_P1;SDS_P2;PMS_P1;PMS_P2;Temp;Humidity;BMP_temperature;BMP_pressure;BME280_temperature;BME280_humidity;BME280_pressure;Samples;Min_cycle;Max_cycle;Signal;HPM_P1;HPM_P2
2024/01/19 00:00:39;;;;;;;12.10;3.77;;;-0.10;99.90;;;;;;4905664;29;20131;-96
2024/01/19 00:03:14;;;;;;;11.77;4.27;;;-0.80;99.90;;;;;;4906962;29;20390;-94
2024/01/19 00:05:41;;;;;;;11.67;4.37;;;-2.50;99.90;;;;;;4908308;29;20094;-96
2024/01/19 00:08:16;;;;;;;9.30;3.73;;;-1.10;99.90;;;;;;4907571;29;20044;-94
2024/01/19 00:10:45;;;;;;;14.07;4.13;;;-1.40;99.90;;;;;;4906499;29;20036;-96
2024/01/19 00:13:17;;;;;;;10.40;4.17;;;1.60;99.90;;;;;;4907343;29;20055;-95
2024/01/19 00:15:42;;;;;;;12.70;6.33;;;-0.50;99.90;;;;;;4905790;29;20079;-95
2024/01/19 00:18:08;;;;;;;11.47;4.27;;;-1.00;99.90;;;;;;4904226;29;20048;-95
2024/01/19 00:20:37;;;;;;;11.37;3.53;;;-1.50;99.90;;;;;;4904341;29;20055;-93
2024/01/19 00:23:03;;;;;;;9.43;3.13;;;-1.80;99.90;;;;;;4903404;29;20051;-94
2024/01/19 00:25:29;;;;;;;11.07;4.50;;;-1.20;99.90;;;;;;4903625;29;20052;-95
2024/01/19 00:27:56;;;;;;;12.03;3.70;;;-0.70;99.90;;;;;;4903058;29;20048;-94
2024/01/19 00:30:21;;;;;;;9.50;3.43;;;-0.20;99.90;;;;;;4896199;29;20060;-94
2024/01/19 00:32:49;;;;;;;10.83;3.80;;;-1.80;99.90;;;;;;4910650;29;20146;-95
2024/01/19 00:35:15;;;;;;;11.10;3.97;;;-0.10;99.90;;;;;;4926478;29;20044;-96
2024/01/19 00:37:52;;;;;;;14.10;3.73;;;-1.60;99.90;;;;;;4934453;29;20057;-94
2024/01/19 00:40:32;;;;;;;10.67;3.43;;;-1.00;99.90;;;;;;4923827;29;20052;-95
2024/01/19 00:43:04;;;;;;;11.73;3.67;;;-0.20;99.90;;;;;;4922463;29;20055;-94
2024/01/19 00:45:39;;;;;;;9.93;3.30;;;-0.60;99.90;;;;;;4924412;23;20059;-93
2024/01/19 00:48:14;;;;;;;12.80;3.77;;;-3.00;99.90;;;;;;4918107;29;20099;-96
2024/01/19 00:50:52;;;;;;;11.17;3.57;;;-1.20;99.90;;;;;;4918499;29;20044;-94
2024/01/19 00:53:21;;;;;;;11.93;3.40;;;-1.10;99.90;;;;;;4918430;29;20056;-95
2024/01/19 00:55:53;;;;;;;11.97;3.60;;;-2.00;99.90;;;;;;4918028;29;20040;-95
2024/01/19 00:58:27;;;;;;;11.13;3.77;;;-0.60;99.90;;;;;;4918173;29;20401;-95
2024/01/19 01:00:59;;;;;;;12.27;3.87;;;-2.40;99.90;;;;;;4917966;29;20047;-94
2024/01/19 01:03:33;;;;;;;12.40;4.00;;;-2.10;99.90;;;;;;4919984;29;20044;-95
2024/01/19 01:06:15;;;;;;;15.27;3.50;;;-1.20;99.90;;;;;;4923359;29;20515;-95
2024/01/19 01:08:52;;;;;;;12.33;3.30;;;-2.10;99.90;;;;;;4927370;29;20048;-94
2024/01/19 01:11:31;;;;;;;15.00;3.90;;;-2.20;99.90;;;;;;4935733;29;20048;-95
2024/01/19 01:14:06;;;;;;;10.83;3.70;;;-0.90;99.90;;;;;;4931781;29;20072;-94
2024/01/19 01:16:47;;;;;;;12.50;4.10;;;-1.80;99.90;;;;;;4934973;29;20040;-95
2024/01/19 01:19:22;;;;;;;12.47;4.33;;;-2.10;99.90;;;;;;4936384;29;20107;-94
2024/01/19 01:21:54;;;;;;;11.83;3.70;;;-2.00;99.90;;;;;;4938045;29;20024;-93
2024/01/19 01:24:22;;;;;;;11.53;3.47;;;-1.90;99.90;;;;;;4934267;29;20095;-96
2024/01/19 01:26:48;;;;;;;11.93;3.60;;;-1.20;99.90;;;;;;4918988;29;20084;-92
2024/01/19 01:29:22;;;;;;;11.70;3.50;;;-1.30;99.90;;;;;;4918109;29;20052;-94
2024/01/19 01:31:56;;;;;;;12.00;4.03;;;-1.80;99.90;;;;;;4918273;29;20052;-93
2024/01/19 01:37:13;;;;;;;14.07;3.80;;;0.20;99.90;;;;;;4917369;29;20056;-93
2024/01/19 01:39:48;;;;;;;13.10;4.13;;;-1.70;99.90;;;;;;4921580;23;20087;-93
2024/01/19 01:42:28;;;;;;;11.33;3.70;;;-2.00;99.90;;;;;;4902755;29;20096;-95
2024/01/19 01:45:09;;;;;;;14.00;4.07;;;-1.20;99.90;;;;;;4917483;29;20040;-94
2024/01/19 01:47:35;;;;;;;11.17;3.60;;;-1.40;99.90;;;;;;4904981;29;20048;-93
2024/01/19 01:50:07;;;;;;;10.43;3.70;;;-1.30;99.90;;;;;;4903052;29;20053;-94
2024/01/19 01:52:41;;;;;;;13.97;3.90;;;-1.50;99.90;;;;;;4901357;29;20052;-94
2024/01/19 01:55:10;;;;;;;11.30;3.83;;;-1.90;99.90;;;;;;4901304;29;20059;-94
2024/01/19 01:57:48;;;;;;;10.77;3.77;;;-1.50;99.90;;;;;;4901994;29;20059;-94
2024/01/19 02:00:23;;;;;;;11.37;3.67;;;-0.60;99.90;;;;;;4901148;29;20401;-95
2024/01/19 02:02:51;;;;;;;11.17;3.97;;;0.20;99.90;;;;;;4902732;29;20192;-94
2024/01/19 02:05:17;;;;;;;11.23;3.87;;;0.00;99.90;;;;;;4902452;29;20408;-93
2024/01/19 02:07:48;;;;;;;13.40;4.00;;;-1.60;99.90;;;;;;4902166;29;20047;-96
2024/01/19 02:10:21;;;;;;;12.80;3.80;;;-0.40;99.90;;;;;;4901881;29;20044;-94
2024/01/19 02:13:02;;;;;;;9.83;3.57;;;-1.30;99.90;;;;;;4902625;29;20096;-94
2024/01/19 02:15:34;;;;;;;9.57;3.50;;;-1.50;99.90;;;;;;4903202;29;20135;-93
2024/01/19 02:18:06;;;;;;;12.80;4.10;;;-1.40;99.90;;;;;;4905152;29;20048;-96
2024/01/19 02:20:37;;;;;;;14.30;3.93;;;-1.30;99.90;;;;;;4903907;29;20473;-93
2024/01/19 02:23:16;;;;;;;9.37;3.57;;;-1.20;99.90;;;;;;4902908;29;20147;-94
2024/01/19 02:25:41;;;;;;;9.80;3.50;;;-1.70;99.90;;;;;;4902851;29;20044;-92
2024/01/19 02:28:13;;;;;;;13.30;4.37;;;-1.40;99.90;;;;;;4901889;29;20638;-95
2024/01/19 02:30:46;;;;;;;12.20;3.67;;;-1.50;99.90;;;;;;4902962;29;20389;-93
2024/01/19 02:33:12;;;;;;;12.30;4.43;;;-0.40;99.90;;;;;;4902399;29;20062;-93
2024/01/19 02:35:41;;;;;;;14.10;4.53;;;-1.60;99.90;;;;;;4901843;29;20134;-94
2024/01/19 02:38:13;;;;;;;12.23;4.70;;;-1.10;99.90;;;;;;4902123;29;20111;-94
2024/01/19 02:41:30;;;;;;;12.33;4.90;;;-0.40;99.90;;;;;;4906510;29;20044;-93
2024/01/19 02:43:56;;;;;;;16.07;4.47;;;-2.00;99.90;;;;;;4904350;29;20051;-94
2024/01/19 02:46:31;;;;;;;13.87;6.63;;;-2.00;99.90;;;;;;4904504;29;20142;-95
2024/01/19 02:49:04;;;;;;;12.13;4.30;;;-1.90;99.90;;;;;;4972979;23;20085;-94
2024/01/19 02:51:42;;;;;;;14.15;4.93;;;-1.50;99.90;;;;;;4932707;29;20079;-94
2024/01/19 02:54:10;;;;;;;14.97;4.90;;;-0.60;99.90;;;;;;4936477;29;20058;-94
2024/01/19 02:56:45;;;;;;;10.77;4.40;;;-1.00;99.90;;;;;;4926340;29;20571;-94
2024/01/19 02:59:17;;;;;;;13.53;4.27;;;-2.40;99.90;;;;;;4927711;29;20106;-96
2024/01/19 03:02:02;;;;;;;11.57;4.37;;;-1.30;99.90;;;;;;4923504;29;20400;-95
2024/01/19 03:05:28;;;;;;;12.70;4.77;;;-2.10;99.90;;;;;;4924135;29;20047;-94
2024/01/19 03:09:03;;;;;;;13.27;4.93;;;-2.90;99.90;;;;;;4904250;29;20063;-96
2024/01/19 03:11:29;;;;;;;12.75;5.00;;;-2.00;99.90;;;;;;4903920;29;20060;-96
2024/01/19 03:13:55;;;;;;;13.10;4.63;;;-0.50;99.90;;;;;;4905979;29;20048;-94
2024/01/19 03:16:30;;;;;;;10.40;4.50;;;-2.70;99.90;;;;;;4905124;29;20044;-94
2024/01/19 03:19:07;;;;;;;12.13;4.43;;;-1.50;99.90;;;;;;4905519;29;20052;-95
2024/01/19 03:21:33;;;;;;;15.07;5.67;;;-2.50;99.90;;;;;;4904639;29;20071;-94
2024/01/19 03:24:02;;;;;;;9.60;4.10;;;-1.20;99.90;;;;;;4904495;29;20048;-94
2024/01/19 03:26:28;;;;;;;13.10;4.20;;;;;;;;;;4912830;29;20060;-94
2024/01/19 03:28:57;;;;;;;11.70;4.47;;;-1.80;99.90;;;;;;4920291;29;20040;-96
2024/01/19 03:31:23;;;;;;;11.87;3.80;;;-2.10;99.90;;;;;;4908879;29;20052;-96
2024/01/19 03:33:52;;;;;;;9.37;3.60;;;-0.20;99.90;;;;;;4913142;29;20055;-95
2024/01/19 03:36:18;;;;;;;9.77;3.80;;;-1.70;99.90;;;;;;4941692;23;20056;-96
2024/01/19 03:38:44;;;;;;;13.20;3.60;;;0.30;99.90;;;;;;4916619;23;20060;-96
2024/01/19 03:41:12;;;;;;;11.87;3.80;;;0.10;99.90;;;;;;4901647;29;20434;-95
2024/01/19 03:43:43;;;;;;;13.80;4.10;;;-0.90;99.90;;;;;;4901572;29;20128;-95
2024/01/19 03:46:17;;;;;;;11.27;3.60;;;-2.30;99.90;;;;;;4909709;29;20045;-96
2024/01/19 03:49:12;;;;;;;11.10;3.67;;;0.60;99.90;;;;;;4917278;29;20049;-96
2024/01/19 03:52:10;;;;;;;11.67;3.50;;;-1.40;99.90;;;;;;4902902;29;20118;-95
2024/01/19 03:54:37;;;;;;;11.90;3.50;;;0.60;99.90;;;;;;4905301;29;20087;-95
2024/01/19 03:57:08;;;;;;;9.03;3.20;;;-1.10;99.90;;;;;;4903150;29;20044;-95
2024/01/19 03:59:40;;;;;;;10.17;3.70;;;1.20;99.90;;;;;;4908738;29;20095;-95
2024/01/19 04:02:06;;;;;;;9.83;3.40;;;-1.20;99.90;;;;;;4919448;29;20048;-95
2024/01/19 04:04:37;;;;;;;10.17;3.43;;;-0.20;99.90;;;;;;4904060;29;20076;-94
2024/01/19 04:07:06;;;;;;;10.30;3.30;;;0.20;99.90;;;;;;4903760;29;20104;-96
2024/01/19 04:09:38;;;;;;;12.67;3.50;;;-0.30;99.90;;;;;;4903376;29;20473;-95
2024/01/19 04:12:15;;;;;;;10.23;3.57;;;0.00;99.90;;;;;;4903924;29;20103;-95
2024/01/19 04:14:42;;;;;;;13.27;3.50;;;-0.50;99.90;;;;;;4901724;29;20044;-94
2024/01/19 04:17:12;;;;;;;11.13;3.60;;;0.80;99.90;;;;;;4900626;29;20052;-95
2024/01/19 04:19:38;;;;;;;10.83;3.60;;;-0.90;99.90;;;;;;4900185;29;20051;-94
2024/01/19 04:22:06;;;;;;;10.87;3.20;;;-1.00;99.90;;;;;;4900600;29;20159;-96
2024/01/19 04:24:35;;;;;;;11.13;3.30;;;0.70;99.90;;;;;;4901542;29;20096;-93
2024/01/19 04:27:01;;;;;;;8.47;2.60;;;-1.00;99.90;;;;;;4902065;29;20111;-95
2024/01/19 04:29:27;;;;;;;10.73;2.80;;;-0.60;99.90;;;;;;4944598;23;20087;-94
2024/01/19 04:31:53;;;;;;;10.37;2.97;;;-0.70;99.90;;;;;;4921948;29;20051;-94
2024/01/19 04:34:19;;;;;;;12.70;3.30;;;-1.10;99.90;;;;;;4922818;29;20035;-94
2024/01/19 04:36:45;;;;;;;13.60;3.10;;;1.20;99.90;;;;;;4925213;29;20118;-94
2024/01/19 04:39:16;;;;;;;7.10;2.30;;;0.00;99.90;;;;;;4921343;29;20047;-94
2024/01/19 04:41:41;;;;;;;9.03;2.60;;;-0.90;99.90;;;;;;4922617;29;20404;-93
2024/01/19 04:44:07;;;;;;;9.07;2.70;;;-1.30;99.90;;;;;;4922412;29;20048;-94
2024/01/19 04:46:33;;;;;;;9.73;2.70;;;-1.40;99.90;;;;;;4922021;29;20040;-94
2024/01/19 04:48:59;;;;;;;9.07;2.60;;;0.70;99.90;;;;;;4921298;29;20063;-95
2024/01/19 04:51:39;;;;;;;8.80;2.70;;;-1.70;99.90;;;;;;4921207;29;20054;-96
2024/01/19 04:54:07;;;;;;;11.97;3.00;;;-0.20;99.90;;;;;;4921434;29;20043;-92
2024/01/19 04:56:34;;;;;;;8.77;2.70;;;-0.60;99.90;;;;;;4921808;29;20098;-95
2024/01/19 04:59:00;;;;;;;11.60;2.70;;;-1.60;99.90;;;;;;4924026;29;20054;-94
2024/01/19 05:01:31;;;;;;;10.70;2.63;;;-1.60;99.90;;;;;;4920857;29;20070;-95
2024/01/19 05:03:57;;;;;;;9.70;2.70;;;-0.20;99.90;;;;;;4921154;29;20143;-95
2024/01/19 05:06:23;;;;;;;8.57;2.70;;;-1.90;99.90;;;;;;4931395;29;20039;-96
2024/01/19 05:08:52;;;;;;;9.33;2.80;;;-0.80;99.90;;;;;;4937517;29;20127;-95
2024/01/19 05:15:13;;;;;;;10.80;2.87;;;-2.10;99.90;;;;;;4937770;29;20156;-94
2024/01/19 05:17:44;;;;;;;10.10;2.70;;;-0.60;99.90;;;;;;4921544;29;20036;-93
2024/01/19 05:20:16;;;;;;;8.70;2.70;;;-2.10;99.90;;;;;;4921310;29;20143;-95
2024/01/19 05:22:50;;;;;;;9.80;2.80;;;-2.00;99.90;;;;;;4920917;29;20048;-95
2024/01/19 05:25:18;;;;;;;9.57;2.80;;;-1.40;99.90;;;;;;4921227;29;20098;-94
2024/01/19 05:28:17;;;;;;;9.37;2.90;;;-1.80;99.90;;;;;;4920329;29;20554;-94
2024/01/19 05:30:49;;;;;;;8.07;2.50;;;-0.10;99.90;;;;;;4903153;29;20135;-96
2024/01/19 05:37:09;;;;;;;9.33;3.20;;;-1.20;99.90;;;;;;4918547;29;20163;-96
2024/01/19 05:39:35;;;;;;;9.40;3.50;;;-2.30;99.90;;;;;;4907665;29;20067;-95
2024/01/19 05:42:16;;;;;;;13.13;3.70;;;-1.60;99.90;;;;;;4919270;29;20048;-94
2024/01/19 05:44:53;;;;;;;11.10;3.90;;;-0.70;99.90;;;;;;4904728;29;20154;-96
2024/01/19 05:47:47;;;;;;;11.23;4.00;;;0.10;99.90;;;;;;4902204;29;20044;-96
2024/01/19 05:50:28;;;;;;;13.18;3.97;;;-0.40;99.90;;;;;;4902587;29;20052;-95
2024/01/19 05:52:57;;;;;;;11.07;3.95;;;-0.20;99.90;;;;;;4902592;29;20492;-96
2024/01/19 05:55:29;;;;;;;14.43;4.47;;;-1.60;99.90;;;;;;4903006;29;20025;-95
2024/01/19 05:58:14;;;;;;;12.00;4.40;;;-0.70;99.90;;;;;;4903371;29;20114;-94
2024/01/19 06:00:46;;;;;;;12.60;4.70;;;-1.50;99.90;;;;;;4912284;29;20072;-95
2024/01/19 06:03:24;;;;;;;14.10;4.60;;;-1.60;99.90;;;;;;4907082;29;20110;-95
2024/01/19 06:06:05;;;;;;;12.30;4.50;;;0.00;99.90;;;;;;4922496;29;20028;-94
2024/01/19 06:08:35;;;;;;;16.33;5.20;;;-1.40;99.90;;;;;;4922415;29;20036;-94
2024/01/19 06:11:07;;;;;;;13.70;4.80;;;0.30;99.90;;;;;;4924007;29;20032;-94
2024/01/19 06:13:42;;;;;;;10.80;4.67;;;-0.70;99.90;;;;;;4924606;29;20032;-93
2024/01/19 06:16:13;;;;;;;15.03;4.27;;;-1.70;99.90;;;;;;4925279;29;20077;-96
2024/01/19 06:18:55;;;;;;;13.80;5.13;;;-0.60;99.90;;;;;;4915901;29;20047;-94
2024/01/19 06:21:25;;;;;;;13.43;4.07;;;-1.00;99.90;;;;;;4909671;29;20040;-95
2024/01/19 06:23:56;;;;;;;16.43;4.80;;;-0.40;99.90;;;;;;4908593;29;20051;-95
2024/01/19 06:26:37;;;;;;;12.97;4.27;;;-1.30;99.90;;;;;;4905898;29;20123;-94
2024/01/19 06:29:06;;;;;;;14.70;4.90;;;-0.80;99.90;;;;;;4913429;29;20056;-95
2024/01/19 06:32:38;;;;;;;13.63;5.17;;;-1.30;99.90;;;;;;4927755;29;20052;-94
2024/01/19 06:35:09;;;;;;;13.17;5.10;;;-0.60;99.90;;;;;;4927662;29;20052;-94
2024/01/19 06:37:52;;;;;;;12.63;5.30;;;-1.60;99.90;;;;;;4925527;29;20075;-94
2024/01/19 06:40:27;;;;;;;17.30;5.78;;;0.10;99.90;;;;;;4924410;29;20051;-94
2024/01/19 06:42:53;;;;;;;14.93;5.67;;;-1.50;99.90;;;;;;4929946;23;20177;-94
2024/01/19 06:45:25;;;;;;;15.63;5.50;;;0.80;99.90;;;;;;4924436;29;20485;-95
2024/01/19 06:48:03;;;;;;;17.03;5.47;;;-2.70;99.90;;;;;;4923843;29;20054;-95
2024/01/19 06:50:32;;;;;;;14.43;5.37;;;-1.50;99.90;;;;;;4924382;29;20567;-94
2024/01/19 06:53:12;;;;;;;14.97;5.53;;;-2.10;99.90;;;;;;4925913;29;20055;-93
2024/01/19 06:55:44;;;;;;;12.53;4.80;;;-0.30;99.90;;;;;;4924336;29;20088;-94
2024/01/19 06:58:25;;;;;;;11.37;5.10;;;0.30;99.90;;;;;;4923526;29;20058;-94
2024/01/19 07:01:00;;;;;;;12.77;5.00;;;0.30;99.90;;;;;;4923865;29;20130;-94
2024/01/19 07:03:26;;;;;;;15.37;4.47;;;-2.30;99.90;;;;;;4924705;29;20503;-94
2024/01/19 07:05:57;;;;;;;10.87;4.63;;;-1.30;99.90;;;;;;4924610;29;20044;-95
2024/01/19 07:08:28;;;;;;;12.00;3.77;;;-2.00;99.90;;;;;;4924189;29;20051;-94
2024/01/19 07:11:03;;;;;;;11.37;3.57;;;-1.60;99.90;;;;;;4923176;29;20135;-89
2024/01/19 07:13:35;;;;;;;14.63;3.70;;;-1.30;99.90;;;;;;4936485;29;20024;-90
2024/01/19 07:16:01;;;;;;;12.40;2.90;;;-1.40;99.90;;;;;;4920606;29;20052;-85
2024/01/19 07:18:38;;;;;;;11.23;3.20;;;0.00;99.90;;;;;;4921672;29;20054;-87
2024/01/19 07:21:11;;;;;;;11.43;3.37;;;-1.30;99.90;;;;;;4920428;29;20043;-87
2024/01/19 07:23:52;;;;;;;10.07;3.13;;;-1.30;99.90;;;;;;4919618;29;20052;-87
2024/01/19 07:26:19;;;;;;;12.87;3.10;;;-1.20;99.90;;;;;;4919564;29;20814;-86
2024/01/19 07:28:45;;;;;;;11.90;2.83;;;-1.00;99.90;;;;;;4920553;29;20060;-88
2024/01/19 07:31:11;;;;;;;12.93;2.67;;;-1.00;99.90;;;;;;4919546;29;20376;-86
2024/01/19 07:33:37;;;;;;;11.43;2.63;;;-1.10;99.90;;;;;;4920483;29;20048;-88
2024/01/19 07:36:03;;;;;;;12.87;2.67;;;-1.10;99.90;;;;;;4919480;29;20079;-86
2024/01/19 07:38:28;;;;;;;23.97;12.70;;;-1.10;99.90;;;;;;4920543;29;20488;-87
2024/01/19 07:40:54;;;;;;;10.17;3.67;;;-1.10;99.90;;;;;;4919832;29;20039;-87
2024/01/19 07:43:20;;;;;;;12.80;6.30;;;-1.20;99.90;;;;;;4922271;29;20440;-86
2024/01/19 07:45:45;;;;;;;16.13;5.63;;;-1.20;99.90;;;;;;4919720;29;20051;-88
2024/01/19 07:48:11;;;;;;;16.43;8.20;;;-1.20;99.90;;;;;;4919871;29;20115;-86
2024/01/19 07:50:36;;;;;;;12.47;3.53;;;-1.30;99.90;;;;;;4919007;29;20077;-87
2024/01/19 07:53:02;;;;;;;11.07;3.40;;;-1.40;99.90;;;;;;4919952;29;20052;-87
2024/01/19 07:55:28;;;;;;;9.20;3.07;;;-1.40;99.90;;;;;;4920155;29;20055;-87
2024/01/19 07:57:54;;;;;;;11.47;3.40;;;-1.40;99.90;;;;;;4919331;29;20393;-87
2024/01/19 08:00:20;;;;;;;13.77;3.20;;;-1.50;99.90;;;;;;4920154;29;20047;-87
2024/01/19 08:02:46;;;;;;;15.17;2.50;;;-1.50;99.90;;;;;;4919572;29;20051;-87
2024/01/19 08:05:12;;;;;;;8.50;2.63;;;-1.50;99.90;;;;;;4918786;29;20087;-87
2024/01/19 08:07:40;;;;;;;9.27;2.30;;;-1.50;99.90;;;;;;4919530;29;20082;-87
2024/01/19 08:10:06;;;;;;;10.17;2.60;;;-1.10;99.90;;;;;;4919910;29;20056;-87
2024/01/19 08:12:32;;;;;;;10.63;2.97;;;-1.50;99.90;;;;;;4920087;29;20511;-83
2024/01/19 08:14:57;;;;;;;11.70;3.63;;;-1.50;99.90;;;;;;4919659;29;20198;-87
2024/01/19 08:17:23;;;;;;;9.03;2.20;;;-1.50;99.90;;;;;;4920241;29;20484;-86
2024/01/19 08:19:49;;;;;;;10.93;4.17;;;-1.50;99.90;;;;;;4918945;29;20082;-87
2024/01/19 08:22:17;;;;;;;9.83;3.37;;;-1.50;99.90;;;;;;4919494;29;20142;-87
2024/01/19 08:24:43;;;;;;;11.03;5.50;;;-1.40;99.90;;;;;;4919589;29;20501;-87
2024/01/19 08:27:09;;;;;;;12.47;5.33;;;-1.40;99.90;;;;;;4918684;29;20059;-87
2024/01/19 08:29:34;;;;;;;10.73;4.40;;;-1.40;99.90;;;;;;4919431;29;20051;-87
2024/01/19 08:32:00;;;;;;;11.57;4.27;;;-1.30;99.90;;;;;;4918519;29;20044;-88
2024/01/19 08:34:27;;;;;;;16.00;7.30;;;-0.90;99.90;;;;;;4917423;29;20043;-85
2024/01/19 08:36:53;;;;;;;16.73;8.40;;;-1.20;99.90;;;;;;4919207;29;20044;-90
2024/01/19 08:39:19;;;;;;;25.30;14.63;;;-1.10;99.90;;;;;;4918705;29;20046;-88
2024/01/19 08:41:44;;;;;;;19.20;8.23;;;-0.90;99.90;;;;;;4919779;29;20134;-90
2024/01/19 08:44:10;;;;;;;13.97;6.10;;;-0.90;99.90;;;;;;4922709;29;20056;-92
2024/01/19 08:46:44;;;;;;;21.87;11.63;;;1.00;99.90;;;;;;4919475;29;20047;-90
2024/01/19 08:49:10;;;;;;;9.93;3.08;;;-0.90;99.90;;;;;;4919270;29;20048;-90
2024/01/19 08:51:36;;;;;;;25.77;15.60;;;-0.70;99.90;;;;;;4918780;29;20058;-88
2024/01/19 08:54:03;;;;;;;18.80;8.07;;;-0.70;99.90;;;;;;4917876;29;20054;-89
2024/01/19 08:56:29;;;;;;;23.47;12.53;;;-0.70;99.90;;;;;;4919265;29;20096;-89
2024/01/19 08:58:57;;;;;;;28.97;16.50;;;-0.70;99.90;;;;;;4918461;29;20488;-89
2024/01/19 09:01:23;;;;;;;13.57;6.20;;;-0.70;99.90;;;;;;4918027;29;20043;-90
2024/01/19 09:03:49;;;;;;;19.00;7.73;;;-0.70;99.90;;;;;;4918967;29;20519;-89
2024/01/19 09:06:15;;;;;;;26.97;14.17;;;-0.70;99.90;;;;;;4919169;29;20098;-90
2024/01/19 09:08:44;;;;;;;19.37;8.20;;;-0.70;99.90;;;;;;4918874;29;20118;-89
2024/01/19 09:11:11;;;;;;;23.97;12.83;;;-0.70;99.90;;;;;;4918967;29;20070;-87
2024/01/19 09:13:40;;;;;;;37.40;20.57;;;-0.70;99.90;;;;;;4918838;29;20052;-89
2024/01/19 09:16:11;;;;;;;18.17;8.47;;;-0.60;99.90;;;;;;4917637;29;20506;-87
2024/01/19 09:18:37;;;;;;;12.03;4.37;;;-0.50;99.90;;;;;;4918453;29;20039;-87
2024/01/19 09:21:04;;;;;;;16.97;8.47;;;-0.50;99.90;;;;;;4917789;29;20038;-88
2024/01/19 09:23:29;;;;;;;13.83;6.03;;;-0.50;99.90;;;;;;4917611;29;20043;-87
2024/01/19 09:25:55;;;;;;;10.57;3.77;;;-0.40;99.90;;;;;;4917848;29;20040;-87
2024/01/19 09:28:23;;;;;;;19.53;11.40;;;-0.40;99.90;;;;;;4917803;29;20039;-87
2024/01/19 09:30:49;;;;;;;17.67;9.10;;;0.60;99.90;;;;;;4918151;29;20415;-87
2024/01/19 09:33:15;;;;;;;25.97;12.20;;;0.60;99.90;;;;;;4915445;29;20057;-87
2024/01/19 09:35:41;;;;;;;10.97;3.30;;;-0.30;99.90;;;;;;4917713;29;20047;-88
2024/01/19 09:38:07;;;;;;;20.93;7.03;;;-0.20;99.90;;;;;;4918547;29;20058;-87
2024/01/19 09:40:33;;;;;;;69.47;30.47;;;-0.20;99.90;;;;;;4918764;29;20130;-88
2024/01/19 09:42:59;;;;;;;14.13;3.97;;;-0.30;99.90;;;;;;4917604;29;20150;-87
2024/01/19 09:45:31;;;;;;;17.97;7.63;;;-0.20;99.90;;;;;;4918355;29;20040;-87
2024/01/19 09:48:06;;;;;;;43.20;24.60;;;-0.30;99.90;;;;;;4917568;29;20054;-87
2024/01/19 09:50:35;;;;;;;13.70;6.23;;;1.70;99.90;;;;;;4918259;29;20062;-88
2024/01/19 09:53:04;;;;;;;10.60;2.93;;;0.00;99.90;;;;;;4918195;29;20499;-88
2024/01/19 09:55:30;;;;;;;12.77;4.07;;;0.00;99.90;;;;;;4918001;29;20143;-89
2024/01/19 09:57:57;;;;;;;15.70;8.03;;;0.00;99.90;;;;;;4913192;29;20131;-87
2024/01/19 10:00:23;;;;;;;11.80;4.50;;;0.10;99.90;;;;;;4917954;29;20051;-88
2024/01/19 10:02:51;;;;;;;12.20;3.80;;;0.30;99.90;;;;;;4929614;29;20098;-87
2024/01/19 10:05:18;;;;;;;12.80;3.50;;;1.40;99.90;;;;;;4936398;29;20050;-85
2024/01/19 10:07:48;;;;;;;13.87;3.60;;;0.30;99.90;;;;;;4937972;29;20083;-87
2024/01/19 10:10:15;;;;;;;12.80;3.40;;;0.40;99.90;;;;;;4937086;29;20050;-86
2024/01/19 10:12:41;;;;;;;16.63;3.80;;;0.40;99.90;;;;;;4935926;29;20490;-88
2024/01/19 10:15:14;;;;;;;11.83;3.50;;;1.10;99.90;;;;;;4937120;29;20035;-87
2024/01/19 10:17:41;;;;;;;9.90;3.45;;;1.70;99.90;;;;;;4936404;29;20126;-86
2024/01/19 10:20:12;;;;;;;11.77;3.70;;;0.50;99.90;;;;;;4936715;29;20043;-86
2024/01/19 10:22:41;;;;;;;12.20;3.80;;;0.50;99.90;;;;;;4937020;28;20090;-86
2024/01/19 10:25:14;;;;;;;13.83;3.73;;;0.10;99.90;;;;;;4936359;29;20130;-85
2024/01/19 10:27:41;;;;;;;13.50;3.80;;;1.90;99.90;;;;;;4936560;29;20110;-85
2024/01/19 10:30:16;;;;;;;11.63;3.93;;;0.70;99.90;;;;;;4936521;29;20043;-86
2024/01/19 10:32:43;;;;;;;12.97;4.00;;;0.80;99.90;;;;;;4934612;29;20051;-86
2024/01/19 10:35:20;;;;;;;12.87;3.77;;;2.20;99.90;;;;;;4932289;29;20082;-86
2024/01/19 10:37:46;;;;;;;12.97;3.97;;;2.00;99.90;;;;;;4936534;29;20105;-86
2024/01/19 10:40:23;;;;;;;10.47;3.43;;;0.90;99.90;;;;;;4935932;29;20139;-86
2024/01/19 10:42:53;;;;;;;14.07;4.40;;;1.00;99.90;;;;;;4953973;29;20048;-85
2024/01/19 10:45:23;;;;;;;13.73;4.10;;;1.50;99.90;;;;;;4937163;29;20051;-86
2024/01/19 10:47:52;;;;;;;11.97;4.23;;;1.10;99.90;;;;;;4935617;29;20051;-86
2024/01/19 10:50:19;;;;;;;9.97;3.77;;;1.20;99.90;;;;;;4936978;29;20065;-86
2024/01/19 10:52:48;;;;;;;24.67;13.27;;;1.30;99.90;;;;;;4936778;29;20079;-85
2024/01/19 10:55:21;;;;;;;44.13;27.73;;;1.30;99.90;;;;;;4936553;29;20055;-86
2024/01/19 10:57:52;;;;;;;22.23;12.90;;;1.40;99.90;;;;;;4937189;29;20083;-87
2024/01/19 11:00:28;;;;;;;13.67;5.00;;;1.50;99.90;;;;;;4937575;29;20051;-86
2024/01/19 11:02:57;;;;;;;16.27;9.53;;;1.60;99.90;;;;;;4940161;29;20448;-85
2024/01/19 11:05:24;;;;;;;13.63;4.47;;;1.60;99.90;;;;;;4939996;29;20518;-86
2024/01/19 11:08:00;;;;;;;14.93;4.90;;;1.70;99.90;;;;;;4939316;29;20050;-86
2024/01/19 11:10:30;;;;;;;10.70;4.17;;;1.80;99.90;;;;;;4940273;29;20059;-86
2024/01/19 11:12:59;;;;;;;13.20;3.97;;;1.90;99.90;;;;;;4939564;29;20086;-86
2024/01/19 11:15:31;;;;;;;15.47;5.47;;;2.00;99.90;;;;;;4927062;29;20074;-85
2024/01/19 11:18:01;;;;;;;11.33;4.17;;;2.10;99.90;;;;;;4920048;29;20052;-86
2024/01/19 11:20:29;;;;;;;11.77;4.00;;;2.10;99.90;;;;;;4918339;29;20044;-85
2024/01/19 11:22:55;;;;;;;11.83;3.87;;;2.20;99.90;;;;;;4919167;29;20491;-86
2024/01/19 11:25:35;;;;;;;13.17;4.40;;;2.10;99.90;;;;;;4913229;29;21480;-85
2024/01/19 11:28:14;;;;;;;10.63;4.10;;;2.30;99.90;;;;;;4913511;29;20070;-84
2024/01/19 11:30:43;;;;;;;15.57;5.90;;;2.40;99.90;;;;;;4920270;29;20051;-86
2024/01/19 11:33:19;;;;;;;11.00;4.47;;;2.50;99.90;;;;;;4917712;29;20411;-87
2024/01/19 11:35:54;;;;;;;12.73;4.47;;;2.50;99.90;;;;;;4919826;29;20515;-87
2024/01/19 11:38:38;;;;;;;11.87;4.33;;;2.60;99.90;;;;;;4920125;29;20079;-87
2024/01/19 11:41:04;;;;;;;12.03;3.40;;;2.70;99.90;;;;;;4918008;29;20051;-87
2024/01/19 11:43:37;;;;;;;15.87;4.30;;;2.70;99.90;;;;;;4919919;29;20051;-87
2024/01/19 11:46:04;;;;;;;10.38;3.30;;;2.80;99.90;;;;;;4919976;29;20044;-87
2024/01/19 11:48:41;;;;;;;11.13;3.90;;;2.70;99.90;;;;;;4920458;29;20043;-86
2024/01/19 11:51:07;;;;;;;16.87;4.07;;;2.80;99.90;;;;;;4919548;29;20135;-87
2024/01/19 11:53:55;;;;;;;13.73;3.63;;;2.80;99.90;;;;;;4920222;29;20051;-85
2024/01/19 11:56:22;;;;;;;11.60;3.40;;;2.90;99.90;;;;;;4919436;29;20043;-87
2024/01/19 11:58:47;;;;;;;13.53;3.73;;;2.90;99.90;;;;;;4919010;29;20051;-84
2024/01/19 12:01:13;;;;;;;15.53;4.03;;;2.90;99.90;;;;;;4916246;29;20048;-84
2024/01/19 12:03:39;;;;;;;12.40;4.67;;;2.90;99.90;;;;;;4918683;29;20066;-83
2024/01/19 12:06:05;;;;;;;10.63;4.20;;;2.90;99.90;;;;;;4919995;29;20035;-84
2024/01/19 12:08:32;;;;;;;11.93;3.83;;;3.00;99.90;;;;;;4919896;29;20054;-83
2024/01/19 12:11:06;;;;;;;11.80;4.37;;;3.10;99.90;;;;;;4916260;29;20042;-84
2024/01/19 12:13:33;;;;;;;12.03;3.97;;;3.10;99.90;;;;;;4919414;29;20051;-83
2024/01/19 12:16:01;;;;;;;12.60;5.23;;;3.10;99.90;;;;;;4917200;29;20071;-83
2024/01/19 12:18:28;;;;;;;14.60;7.57;;;3.10;99.90;;;;;;4918353;29;20086;-83
2024/01/19 12:20:57;;;;;;;16.23;7.33;;;3.20;99.90;;;;;;4918846;29;20477;-83
2024/01/19 12:23:24;;;;;;;13.87;5.50;;;3.50;99.90;;;;;;4919314;29;20066;-83
2024/01/19 12:26:01;;;;;;;11.93;4.37;;;3.20;99.90;;;;;;4920961;29;20063;-84
2024/01/19 12:28:27;;;;;;;10.53;4.40;;;3.10;99.90;;;;;;4918112;29;20040;-84
2024/01/19 12:30:53;;;;;;;13.33;3.53;;;3.10;99.90;;;;;;4921571;29;20056;-83
2024/01/19 12:33:21;;;;;;;16.33;6.60;;;3.10;99.90;;;;;;4915596;29;20062;-84
2024/01/19 12:35:47;;;;;;;14.77;3.97;;;3.70;99.90;;;;;;4921139;29;20055;-84
2024/01/19 12:38:14;;;;;;;12.30;3.73;;;3.90;99.90;;;;;;4918374;29;20063;-84
2024/01/19 12:40:41;;;;;;;12.43;3.67;;;3.20;99.90;;;;;;4920117;29;20175;-84
2024/01/19 12:43:07;;;;;;;11.70;3.20;;;3.80;99.90;;;;;;4918181;29;20086;-84
2024/01/19 12:45:34;;;;;;;11.40;3.10;;;3.40;99.90;;;;;;4918674;29;20079;-85
2024/01/19 12:48:00;;;;;;;12.27;2.90;;;3.50;99.90;;;;;;4933136;29;20039;-85
2024/01/19 12:50:31;;;;;;;12.70;3.37;;;4.20;99.90;;;;;;4918358;29;20122;-84
2024/01/19 12:52:56;;;;;;;8.87;2.90;;;3.70;99.90;;;;;;4916850;29;20047;-84
2024/01/19 12:55:33;;;;;;;11.43;3.20;;;3.80;99.90;;;;;;4917722;29;20040;-84
2024/01/19 12:57:59;;;;;;;13.27;3.10;;;3.90;99.90;;;;;;4915905;29;20063;-86
2024/01/19 13:00:33;;;;;;;11.07;2.90;;;5.20;99.90;;;;;;4918212;29;20490;-84
2024/01/19 13:02:59;;;;;;;25.83;12.17;;;4.00;99.90;;;;;;4918572;29;20544;-84
2024/01/19 13:05:27;;;;;;;31.87;15.40;;;4.00;99.90;;;;;;4935407;29;20131;-84
2024/01/19 13:07:59;;;;;;;10.17;3.63;;;4.10;99.90;;;;;;4916952;29;20038;-84
2024/01/19 13:10:24;;;;;;;10.57;3.97;;;4.10;99.90;;;;;;4918319;29;20707;-84